Historyczne dane pomiarowe

Dodano dane terminowe – wersja testowa.

Dane z okresu 1951-2019

Wersja bazy: 1.34 [2019-03-16, lista zmian], aktualizacja planowana na 2019-04-15

Dane meteo z obszaru Polski uzyskane na podstawie danych udostępnionych przez Instytut Meteorologii i Gospodarki Wodnej – Państwowy Instytut Badawczy.

 

Wybierz Datę:    

       

TemperaturaWilgotnośćWiatrCiśnienieOpadyŚniegCzas trwania zjawisk
 Stacja t tx tn tng RH VA  wxwx mslp ppp RRR   cm mm wxwxwxwxwxwxwx
2018-03-18 -5.5 -1.5 -8.7-10.0-------- 0.0-- 2---------
2018-03-19 -5.0 1.0 -9.5-11.7-------- 0.0-- 2---------
2018-03-20 -1.9 3.7 -5.6 -7.9-------- 0.0-- 1---------
2018-03-21 -2.3 2.5 -5.5 -7.6-------- 0.0-- 1---------
2018-03-22 0.5 6.1 -3.8 -6.6-------- 0.0------------
2018-03-23 1.7 3.9 0.2 -2.1-------- 0.0------------
2018-03-24 2.2 7.4 -0.6 -2.5-------- 0.0------------
2018-03-25 2.9 11.4 -3.4 -5.5-------- 0.0------------
2018-03-26 3.1 9.3 -2.0 -4.5-------- 1.5------------
2018-03-27 1.5 5.5 -0.2 -1.9-------- 0.4------------
2018-03-28 1.4 5.1 -0.9 -1.0-------- 4.3------------
2018-03-29 4.0 8.3 0.7 0.2-------- 1.0------------
2018-03-30 5.0 13.1 0.1 -2.3-------- 0.0------------
2018-03-31 5.5 9.8 0.8 -0.1-------- 7.8------------
2018-04-01 4.3 9.6 2.0 1.9-------- 1.0------------
2018-04-02 3.5 9.0 0.0 -0.2-------- 0.0-- 1---------
2018-04-03 8.2 18.4 -1.3 -3.5-------- 0.0------------
2018-04-04 13.7 22.5 5.9 1.5-------- 0.0------------
2018-04-05 12.5 19.1 6.5 3.3-------- 0.0------------
2018-04-06 7.5 13.6 4.9 2.2-------- 0.0------------
2018-04-07 8.0 18.1 -1.9 -4.7-------- 0.0------------
2018-04-08 14.3 23.2 5.2 2.2-------- 0.0------------
2018-04-09 16.1 23.4 10.5 6.8-------- 0.0------------
2018-04-10 14.7 24.9 8.1 4.6-------- 7.1------------
2018-04-11 14.0 20.8 7.3 5.7-------- 0.0------------
2018-04-12 14.9 21.8 8.5 5.8-------- 0.0------------
2018-04-13 15.6 23.9 12.5 9.3-------- 6.1------------
2018-04-14 13.0 18.9 7.4 4.4-------- 0.0------------
2018-04-15 15.1 23.5 5.8 2.5-------- 0.0------------
2018-04-16 16.7 21.7 13.7 11.3-------- 2.9------------
161.8 ms

 

Źródłem pochodzenia danych jest Instytut Meteorologii i Gospodarki Wodnej – Państwowy Instytut Badawczy. Dane Instytutu Meteorologii i Gospodarki Wodnej – Państwowego Instytutu Badawczego zostały przetworzone.

Dane źródłowe można odnaleźć na stronie https://dane.imgw.pl